Time;durP1;ratioP1;P1;durP2;ratioP2;P2;SDS_P1;SDS_P2;PMS_P1;PMS_P2;Temp;Humidity;BMP_temperature;BMP_pressure;BME280_temperature;BME280_humidity;BME280_pressure;Samples;Min_cycle;Max_cycle;Signal;HPM_P1;HPM_P2
2022/03/14 00:01:01;;;;;;;16.53;11.83;;;;;;;;;;5025158;28;20228;-64
2022/03/14 00:03:33;;;;;;;15.47;10.30;;;;;;;;;;5017826;28;20211;-65
2022/03/14 00:06:01;;;;;;;17.10;10.00;;;;;;;;;;5029037;28;20215;-64
2022/03/14 00:08:31;;;;;;;15.23;9.80;;;;;;;;;;5025011;28;20599;-65
2022/03/14 00:10:58;;;;;;;16.40;10.20;;;;;;;;;;5034139;28;20238;-66
2022/03/14 00:13:27;;;;;;;15.40;9.73;;;;;;;;;;5030849;28;20211;-66
2022/03/14 00:15:55;;;;;;;14.50;10.07;;;;;;;;;;5039158;28;20212;-65
2022/03/14 00:18:24;;;;;;;15.87;9.93;;;;;;;;;;5031024;28;20231;-65
2022/03/14 00:20:52;;;;;;;15.27;10.20;;;;;;;;;;5046734;28;20222;-65
2022/03/14 00:23:20;;;;;;;16.43;9.80;;;;;;;;;;5031512;28;20665;-65
2022/03/14 00:25:50;;;;;;;13.77;9.10;;;;;;;;;;5028337;28;20206;-65
2022/03/14 00:28:17;;;;;;;13.80;9.90;;;;;;;;;;5027894;28;20215;-65
2022/03/14 00:30:45;;;;;;;15.93;9.73;;;;;;;;;;5031606;28;20222;-65
2022/03/14 00:33:13;;;;;;;14.27;9.83;;;;;;;;;;5022439;28;20715;-64
2022/03/14 00:35:41;;;;;;;13.83;9.77;;;;;;;;;;5025939;28;20215;-65
2022/03/14 00:38:08;;;;;;;15.27;10.33;;;;;;;;;;5014615;28;20227;-65
2022/03/14 00:40:36;;;;;;;14.77;10.03;;;;;;;;;;5040496;28;20222;-66
2022/03/14 00:43:03;;;;;;;17.23;9.60;;;;;;;;;;5016073;28;20211;-65
2022/03/14 00:45:32;;;;;;;13.57;9.77;;;;;;;;;;5024812;28;20551;-66
2022/03/14 00:48:00;;;;;;;14.07;9.67;;;;;;;;;;5015542;28;20691;-66
2022/03/14 00:50:27;;;;;;;13.23;9.37;;;;;;;;;;5023240;28;20209;-65
2022/03/14 00:52:54;;;;;;;17.03;10.53;;;;;;;;;;5011960;28;20207;-65
2022/03/14 00:55:22;;;;;;;14.23;9.23;;;;;;;;;;5024338;28;20202;-65
2022/03/14 00:57:49;;;;;;;14.20;9.20;;;;;;;;;;5034912;28;20276;-66
2022/03/14 01:00:17;;;;;;;13.53;9.30;;;;;;;;;;5016459;28;20230;-65
2022/03/14 01:02:48;;;;;;;14.30;9.93;;;;;;;;;;5014733;28;20207;-65
2022/03/14 01:05:16;;;;;;;17.23;10.90;;;;;;;;;;5018370;28;20207;-66
2022/03/14 01:07:43;;;;;;;19.17;11.53;;;;;;;;;;5031298;28;20629;-64
2022/03/14 01:10:11;;;;;;;20.87;13.13;;;;;;;;;;5018469;28;20571;-66
2022/03/14 01:12:38;;;;;;;19.47;13.10;;;;;;;;;;5027604;28;20214;-64
2022/03/14 01:15:06;;;;;;;22.23;14.17;;;;;;;;;;5013348;28;20257;-66
2022/03/14 01:17:33;;;;;;;23.83;15.83;;;;;;;;;;5005321;28;20322;-64
2022/03/14 01:20:03;;;;;;;21.47;14.83;;;;;;;;;;5018175;28;20239;-66
2022/03/14 01:22:31;;;;;;;24.97;14.67;;;;;;;;;;5010290;28;20191;-65
2022/03/14 01:24:59;;;;;;;23.97;15.93;;;;;;;;;;5028410;28;20589;-67
2022/03/14 01:27:26;;;;;;;23.73;16.63;;;;;;;;;;5008267;28;20214;-65
2022/03/14 01:29:55;;;;;;;25.30;16.40;;;;;;;;;;5014276;28;20277;-64
2022/03/14 01:32:23;;;;;;;22.73;15.97;;;;;;;;;;5012305;28;20264;-66
2022/03/14 01:34:50;;;;;;;23.07;15.80;;;;;;;;;;5014407;28;20226;-65
2022/03/14 01:37:18;;;;;;;24.33;17.33;;;;;;;;;;5010404;28;20214;-64
2022/03/14 01:39:47;;;;;;;25.03;15.77;;;;;;;;;;5025006;28;20213;-65
2022/03/14 01:42:20;;;;;;;25.93;16.87;;;;;;;;;;5018076;28;20209;-65
2022/03/14 01:44:48;;;;;;;26.83;18.13;;;;;;;;;;5028864;28;20203;-66
2022/03/14 01:47:15;;;;;;;25.43;17.43;;;;;;;;;;5013212;28;20672;-65
2022/03/14 01:49:43;;;;;;;23.30;17.07;;;;;;;;;;5017879;28;20942;-64
2022/03/14 01:52:11;;;;;;;23.93;16.20;;;;;;;;;;5037993;28;20269;-65
2022/03/14 01:54:39;;;;;;;25.83;17.00;;;;;;;;;;5019455;28;20996;-65
2022/03/14 01:57:08;;;;;;;26.77;16.43;;;;;;;;;;5007728;28;20234;-64
2022/03/14 01:59:37;;;;;;;26.33;16.70;;;;;;;;;;5023511;28;20560;-66
2022/03/14 02:02:04;;;;;;;25.40;17.33;;;;;;;;;;5014218;28;20223;-64
2022/03/14 02:04:33;;;;;;;23.77;16.00;;;;;;;;;;5013837;28;20243;-64
2022/03/14 02:07:00;;;;;;;23.97;17.00;;;;;;;;;;5009606;28;20635;-64
2022/03/14 02:09:27;;;;;;;27.30;17.27;;;;;;;;;;5016160;28;20234;-65
2022/03/14 02:11:58;;;;;;;22.93;15.47;;;;;;;;;;5035338;28;20294;-64
2022/03/14 02:14:25;;;;;;;23.93;16.00;;;;;;;;;;5013975;28;20206;-66
2022/03/14 02:16:53;;;;;;;22.73;15.87;;;;;;;;;;5010543;28;20219;-63
2022/03/14 02:19:20;;;;;;;21.93;15.40;;;;;;;;;;5005306;28;20285;-66
2022/03/14 02:21:48;;;;;;;18.50;13.43;;;;;;;;;;5026161;28;20332;-65
2022/03/14 02:24:15;;;;;;;22.60;16.30;;;;;;;;;;5015542;28;20203;-66
2022/03/14 02:26:44;;;;;;;27.23;17.47;;;;;;;;;;5019594;28;20202;-65
2022/03/14 02:29:12;;;;;;;21.30;15.17;;;;;;;;;;5039024;28;20252;-64
2022/03/14 02:31:39;;;;;;;22.20;14.47;;;;;;;;;;5027487;28;20214;-66
2022/03/14 02:34:07;;;;;;;20.77;14.50;;;;;;;;;;5011098;28;20207;-65
2022/03/14 02:36:37;;;;;;;22.17;14.50;;;;;;;;;;5016318;28;20546;-64
2022/03/14 02:39:05;;;;;;;25.83;15.13;;;;;;;;;;5018511;28;20285;-67
2022/03/14 02:41:33;;;;;;;19.83;14.27;;;;;;;;;;5035806;28;20712;-63
2022/03/14 02:44:06;;;;;;;19.67;13.97;;;;;;;;;;5021165;28;20203;-64
2022/03/14 02:46:43;;;;;;;16.87;12.30;;;;;;;;;;5015922;28;20209;-64
2022/03/14 02:49:11;;;;;;;15.57;11.53;;;;;;;;;;5014268;28;20227;-66
2022/03/14 02:51:40;;;;;;;13.97;11.20;;;;;;;;;;5019169;28;20238;-67
2022/03/14 02:54:08;;;;;;;14.27;9.83;;;;;;;;;;4991863;28;20204;-64
2022/03/14 02:56:36;;;;;;;11.80;9.07;;;;;;;;;;5007012;28;20832;-65
2022/03/14 02:59:05;;;;;;;12.53;9.00;;;;;;;;;;5017143;28;20249;-65
2022/03/14 03:01:33;;;;;;;11.60;8.60;;;;;;;;;;5013744;28;20231;-66
2022/03/14 03:04:01;;;;;;;11.03;8.50;;;;;;;;;;5015783;28;20226;-65
2022/03/14 03:06:29;;;;;;;9.37;7.17;;;;;;;;;;5017094;28;20254;-65
2022/03/14 03:08:56;;;;;;;7.80;6.60;;;;;;;;;;5020940;28;20612;-65
2022/03/14 03:11:24;;;;;;;6.47;4.97;;;;;;;;;;5008835;28;20218;-66
2022/03/14 03:13:53;;;;;;;6.90;4.90;;;;;;;;;;5014268;28;20206;-64
2022/03/14 03:16:22;;;;;;;5.97;4.60;;;;;;;;;;5008055;28;20207;-64
2022/03/14 03:18:49;;;;;;;6.83;5.20;;;;;;;;;;5011063;28;20231;-66
2022/03/14 03:21:17;;;;;;;6.67;4.53;;;;;;;;;;5012871;28;20226;-63
2022/03/14 03:23:44;;;;;;;6.20;4.83;;;;;;;;;;5019909;28;20203;-63
2022/03/14 03:26:12;;;;;;;5.50;4.63;;;;;;;;;;5029299;28;20218;-64
2022/03/14 03:28:39;;;;;;;6.80;4.47;;;;;;;;;;5035780;28;20877;-65
2022/03/14 03:31:07;;;;;;;5.07;4.30;;;;;;;;;;5022161;28;20211;-67
2022/03/14 03:33:35;;;;;;;4.93;3.97;;;;;;;;;;5021734;28;20210;-64
2022/03/14 03:36:03;;;;;;;4.73;3.80;;;;;;;;;;5033830;28;20208;-66
2022/03/14 03:38:30;;;;;;;5.00;3.97;;;;;;;;;;5025008;28;20321;-64
2022/03/14 03:40:58;;;;;;;4.73;3.40;;;;;;;;;;5032886;28;20222;-66
2022/03/14 03:43:26;;;;;;;4.77;3.30;;;;;;;;;;5014851;28;20743;-66
2022/03/14 03:45:54;;;;;;;3.10;2.80;;;;;;;;;;5009400;28;20271;-65
2022/03/14 03:48:22;;;;;;;2.10;1.90;;;;;;;;;;5036877;28;20802;-66
2022/03/14 03:50:49;;;;;;;3.13;1.70;;;;;;;;;;5032520;28;20214;-65
2022/03/14 03:53:16;;;;;;;3.43;1.50;;;;;;;;;;5018507;28;20206;-63
2022/03/14 03:55:44;;;;;;;2.27;1.47;;;;;;;;;;5014358;28;20230;-65
2022/03/14 03:58:11;;;;;;;1.70;1.60;;;;;;;;;;5021777;28;20646;-66
2022/03/14 04:00:39;;;;;;;1.20;1.20;;;;;;;;;;5018298;28;20211;-65
2022/03/14 04:03:07;;;;;;;1.40;1.30;;;;;;;;;;5014438;28;20211;-65
2022/03/14 04:05:39;;;;;;;1.20;1.20;;;;;;;;;;5013505;28;20301;-65
2022/03/14 04:08:11;;;;;;;0.93;0.93;;;;;;;;;;5014629;28;20249;-66
2022/03/14 04:10:39;;;;;;;1.00;1.00;;;;;;;;;;5017298;28;20215;-65
2022/03/14 04:13:06;;;;;;;1.20;1.20;;;;;;;;;;5014264;28;20241;-67
2022/03/14 04:15:42;;;;;;;0.70;0.70;;;;;;;;;;5033861;28;20237;-66
2022/03/14 04:18:10;;;;;;;0.97;0.97;;;;;;;;;;5030672;28;20222;-64
2022/03/14 04:20:37;;;;;;;0.90;0.90;;;;;;;;;;5015305;28;20218;-65
2022/03/14 04:23:05;;;;;;;1.10;1.10;;;;;;;;;;5025024;28;20206;-65
2022/03/14 04:25:32;;;;;;;1.40;1.30;;;;;;;;;;5017760;28;20219;-64
2022/03/14 04:28:00;;;;;;;0.97;0.97;;;;;;;;;;5017493;28;20235;-66
2022/03/14 04:30:27;;;;;;;2.00;1.20;;;;;;;;;;5014276;28;20708;-67
2022/03/14 04:32:55;;;;;;;1.30;1.20;;;;;;;;;;5016298;28;20207;-66
2022/03/14 04:35:22;;;;;;;0.80;0.80;;;;;;;;;;5040247;28;20203;-63
2022/03/14 04:37:49;;;;;;;0.97;0.83;;;;;;;;;;5039538;28;20720;-65
2022/03/14 04:40:17;;;;;;;0.80;0.80;;;;;;;;;;5015074;28;20211;-65
2022/03/14 04:42:44;;;;;;;0.80;0.80;;;;;;;;;;5018729;28;20281;-64
2022/03/14 04:45:12;;;;;;;0.80;0.80;;;;;;;;;;5011015;28;20211;-65
2022/03/14 04:47:39;;;;;;;0.80;0.80;;;;;;;;;;5020930;28;20580;-65
2022/03/14 04:50:07;;;;;;;0.77;0.77;;;;;;;;;;5008236;28;20215;-66
2022/03/14 04:52:35;;;;;;;0.80;0.80;;;;;;;;;;5008879;28;20265;-65
2022/03/14 04:55:02;;;;;;;0.70;0.70;;;;;;;;;;5015593;28;20214;-65
2022/03/14 04:57:29;;;;;;;0.73;0.73;;;;;;;;;;5033703;28;20218;-66
2022/03/14 04:59:57;;;;;;;0.70;0.70;;;;;;;;;;5032804;28;20264;-63
2022/03/14 05:02:25;;;;;;;0.80;0.80;;;;;;;;;;5015400;28;20227;-64
2022/03/14 05:04:52;;;;;;;0.70;0.70;;;;;;;;;;5016877;28;20815;-66
2022/03/14 05:07:20;;;;;;;0.70;0.70;;;;;;;;;;5022480;28;20211;-65
2022/03/14 05:09:47;;;;;;;0.80;0.80;;;;;;;;;;5025126;28;20814;-65
2022/03/14 05:12:15;;;;;;;0.70;0.70;;;;;;;;;;5026646;28;20270;-63
2022/03/14 05:14:42;;;;;;;0.80;0.80;;;;;;;;;;5026654;28;20210;-66
2022/03/14 05:17:10;;;;;;;0.60;0.60;;;;;;;;;;5023197;28;20219;-64
2022/03/14 05:19:38;;;;;;;0.57;0.57;;;;;;;;;;5014354;28;20207;-65
2022/03/14 05:22:07;;;;;;;0.60;0.60;;;;;;;;;;5020139;28;21727;-64
2022/03/14 05:24:35;;;;;;;0.70;0.70;;;;;;;;;;5040428;28;20308;-65
2022/03/14 05:27:03;;;;;;;0.60;0.60;;;;;;;;;;5028015;28;20229;-64
2022/03/14 05:29:30;;;;;;;0.70;0.70;;;;;;;;;;5017482;28;20226;-65
2022/03/14 05:31:58;;;;;;;0.80;0.80;;;;;;;;;;5015726;28;20211;-64
2022/03/14 05:34:26;;;;;;;0.70;0.70;;;;;;;;;;5034358;28;20250;-65
2022/03/14 05:36:53;;;;;;;0.60;0.60;;;;;;;;;;5023769;28;20589;-64
2022/03/14 05:39:21;;;;;;;0.70;0.70;;;;;;;;;;5016545;28;20341;-65
2022/03/14 05:41:48;;;;;;;0.60;0.60;;;;;;;;;;5034410;28;20226;-64
2022/03/14 05:44:17;;;;;;;0.60;0.60;;;;;;;;;;5022978;28;20250;-65
2022/03/14 05:46:44;;;;;;;0.70;0.70;;;;;;;;;;5036752;28;20206;-65
2022/03/14 05:49:11;;;;;;;0.77;0.77;;;;;;;;;;5023210;28;20226;-65
2022/03/14 05:51:39;;;;;;;0.70;0.70;;;;;;;;;;5035317;28;20212;-65
2022/03/14 05:54:08;;;;;;;0.70;0.70;;;;;;;;;;5024259;28;20273;-65
2022/03/14 05:56:45;;;;;;;0.70;0.70;;;;;;;;;;5036108;28;20579;-65
2022/03/14 05:59:12;;;;;;;0.77;0.77;;;;;;;;;;5026928;28;20295;-65
2022/03/14 06:01:40;;;;;;;0.60;0.60;;;;;;;;;;5027278;28;20712;-65
2022/03/14 06:04:08;;;;;;;0.60;0.60;;;;;;;;;;5023027;28;20213;-64
2022/03/14 06:06:39;;;;;;;0.70;0.70;;;;;;;;;;5029015;28;20203;-65
2022/03/14 06:09:07;;;;;;;0.60;0.60;;;;;;;;;;5019337;28;20302;-65
2022/03/14 06:11:38;;;;;;;0.70;0.70;;;;;;;;;;5028295;28;20284;-64
2022/03/14 06:14:05;;;;;;;0.90;0.90;;;;;;;;;;5033691;28;20207;-65
2022/03/14 06:16:33;;;;;;;0.60;0.60;;;;;;;;;;5036228;28;20205;-65
2022/03/14 06:19:00;;;;;;;0.60;0.60;;;;;;;;;;5022020;28;20234;-63
2022/03/14 06:21:28;;;;;;;0.50;0.50;;;;;;;;;;5021693;28;20277;-65
2022/03/14 06:23:56;;;;;;;0.50;0.50;;;;;;;;;;5021751;28;20198;-65
2022/03/14 06:26:23;;;;;;;0.60;0.60;;;;;;;;;;5025590;28;20211;-64
2022/03/14 06:28:51;;;;;;;0.50;0.50;;;;;;;;;;5018075;28;20230;-65
2022/03/14 06:31:19;;;;;;;0.60;0.60;;;;;;;;;;5021458;28;20208;-65
2022/03/14 06:33:49;;;;;;;0.80;0.70;;;;;;;;;;5018872;28;20289;-65
2022/03/14 06:36:16;;;;;;;0.60;0.60;;;;;;;;;;5027520;28;20890;-64
2022/03/14 06:38:45;;;;;;;0.60;0.60;;;;;;;;;;5018302;28;20222;-63
2022/03/14 06:41:13;;;;;;;0.60;0.60;;;;;;;;;;5020203;28;20213;-64
2022/03/14 06:43:40;;;;;;;0.70;0.70;;;;;;;;;;5023989;28;20218;-66
2022/03/14 06:46:08;;;;;;;0.70;0.70;;;;;;;;;;5022124;28;20623;-63
2022/03/14 06:48:40;;;;;;;0.60;0.60;;;;;;;;;;5024431;28;20226;-65
2022/03/14 06:51:08;;;;;;;0.60;0.60;;;;;;;;;;5024243;28;20215;-65
2022/03/14 06:53:35;;;;;;;0.60;0.60;;;;;;;;;;5021034;28;20246;-63
2022/03/14 06:56:02;;;;;;;0.60;0.60;;;;;;;;;;5027353;28;20255;-65
2022/03/14 06:58:30;;;;;;;0.60;0.60;;;;;;;;;;5028522;28;20230;-65
2022/03/14 07:01:03;;;;;;;0.70;0.70;;;;;;;;;;5018667;28;20233;-66
2022/03/14 07:03:32;;;;;;;0.60;0.60;;;;;;;;;;5023219;28;20235;-63
2022/03/14 07:05:59;;;;;;;0.60;0.60;;;;;;;;;;5018561;28;20242;-65
2022/03/14 07:08:27;;;;;;;0.60;0.60;;;;;;;;;;5023682;28;20223;-65
2022/03/14 07:10:55;;;;;;;0.50;0.50;;;;;;;;;;5039570;28;20207;-63
2022/03/14 07:13:22;;;;;;;0.50;0.50;;;;;;;;;;5036920;28;20199;-63
2022/03/14 07:15:50;;;;;;;0.60;0.60;;;;;;;;;;5023246;28;20215;-65
2022/03/14 07:18:17;;;;;;;0.60;0.60;;;;;;;;;;5021716;28;20227;-64
2022/03/14 07:20:45;;;;;;;0.60;0.60;;;;;;;;;;5038480;28;20680;-66
2022/03/14 07:23:12;;;;;;;0.60;0.60;;;;;;;;;;5013358;28;20298;-65
2022/03/14 07:25:40;;;;;;;0.60;0.60;;;;;;;;;;5029901;28;20301;-63
2022/03/14 07:28:08;;;;;;;0.60;0.60;;;;;;;;;;5025069;28;20984;-65
2022/03/14 07:30:37;;;;;;;0.60;0.60;;;;;;;;;;5021362;28;20649;-64
2022/03/14 07:33:05;;;;;;;0.60;0.60;;;;;;;;;;5021183;28;20219;-66
2022/03/14 07:35:32;;;;;;;0.60;0.60;;;;;;;;;;5038391;28;20208;-65
2022/03/14 07:38:00;;;;;;;0.70;0.70;;;;;;;;;;5035212;28;20226;-64
2022/03/14 07:40:27;;;;;;;0.50;0.50;;;;;;;;;;5020560;28;20214;-65
2022/03/14 07:42:56;;;;;;;0.60;0.60;;;;;;;;;;5036487;28;20227;-65
2022/03/14 07:45:24;;;;;;;0.70;0.70;;;;;;;;;;5039068;28;20560;-65
2022/03/14 07:47:56;;;;;;;0.77;0.77;;;;;;;;;;5041531;28;20265;-65
2022/03/14 07:50:24;;;;;;;2.33;0.70;;;;;;;;;;5023470;28;20207;-66
2022/03/14 07:52:51;;;;;;;0.73;0.73;;;;;;;;;;5022457;28;20661;-64
2022/03/14 07:55:19;;;;;;;0.80;0.80;;;;;;;;;;5017493;28;20253;-65
2022/03/14 07:57:46;;;;;;;0.97;0.97;;;;;;;;;;5016676;28;20755;-65
2022/03/14 08:00:15;;;;;;;0.70;0.70;;;;;;;;;;5015992;28;20229;-65
2022/03/14 08:02:43;;;;;;;0.70;0.70;;;;;;;;;;5020413;28;20227;-65
2022/03/14 08:05:14;;;;;;;0.77;0.77;;;;;;;;;;5019917;28;20207;-65
2022/03/14 08:07:44;;;;;;;0.80;0.80;;;;;;;;;;5029617;28;20231;-65
2022/03/14 08:10:12;;;;;;;0.70;0.70;;;;;;;;;;5016893;28;20222;-63
2022/03/14 08:12:56;;;;;;;0.70;0.70;;;;;;;;;;5018217;28;20217;-65
2022/03/14 08:15:30;;;;;;;0.50;0.50;;;;;;;;;;5020578;28;20203;-63
2022/03/14 08:18:05;;;;;;;0.73;0.60;;;;;;;;;;5034112;28;20269;-66
2022/03/14 08:20:33;;;;;;;0.60;0.60;;;;;;;;;;5024972;28;20214;-64
2022/03/14 08:23:02;;;;;;;0.60;0.60;;;;;;;;;;5022179;28;20234;-63
2022/03/14 08:25:36;;;;;;;0.60;0.60;;;;;;;;;;5024145;28;20219;-65
2022/03/14 08:28:04;;;;;;;0.60;0.60;;;;;;;;;;5037456;28;20230;-66
2022/03/14 08:30:32;;;;;;;0.50;0.50;;;;;;;;;;5021653;28;20230;-65
2022/03/14 08:32:59;;;;;;;0.53;0.53;;;;;;;;;;5025553;28;20207;-66
2022/03/14 08:35:27;;;;;;;0.60;0.60;;;;;;;;;;5023256;28;20215;-66
2022/03/14 08:37:56;;;;;;;0.70;0.70;;;;;;;;;;5024163;28;20778;-63
2022/03/14 08:40:25;;;;;;;0.60;0.60;;;;;;;;;;5036329;28;20693;-65
2022/03/14 08:42:53;;;;;;;0.70;0.70;;;;;;;;;;5037949;28;20226;-64
2022/03/14 08:45:23;;;;;;;0.77;0.77;;;;;;;;;;5040840;28;20575;-64
2022/03/14 08:47:51;;;;;;;0.70;0.70;;;;;;;;;;5027908;28;20223;-64
2022/03/14 08:50:19;;;;;;;0.80;0.80;;;;;;;;;;5025419;28;20196;-65
2022/03/14 08:52:46;;;;;;;0.63;0.63;;;;;;;;;;5040782;28;20222;-64
2022/03/14 08:55:14;;;;;;;0.70;0.70;;;;;;;;;;5024531;28;20306;-65
2022/03/14 08:57:42;;;;;;;1.20;0.67;;;;;;;;;;5027945;28;20232;-63
2022/03/14 09:00:11;;;;;;;0.80;0.80;;;;;;;;;;5019019;28;20814;-65
2022/03/14 09:02:38;;;;;;;0.67;0.67;;;;;;;;;;5025869;28;20270;-65
2022/03/14 09:05:06;;;;;;;0.63;0.63;;;;;;;;;;5028970;28;20211;-65
2022/03/14 09:07:33;;;;;;;0.60;0.60;;;;;;;;;;5026067;28;20632;-63
2022/03/14 09:10:05;;;;;;;0.70;0.70;;;;;;;;;;5027129;28;20700;-63
2022/03/14 09:12:33;;;;;;;0.83;0.83;;;;;;;;;;5021533;28;20277;-66
2022/03/14 09:15:01;;;;;;;0.70;0.70;;;;;;;;;;5028505;28;20213;-65
2022/03/14 09:17:29;;;;;;;0.60;0.60;;;;;;;;;;5024862;28;20242;-65
2022/03/14 09:19:57;;;;;;;0.80;0.80;;;;;;;;;;5015399;28;20285;-64
2022/03/14 09:22:25;;;;;;;0.80;0.80;;;;;;;;;;5023402;28;20227;-66
2022/03/14 09:24:54;;;;;;;0.70;0.70;;;;;;;;;;5040177;28;20213;-63
2022/03/14 09:27:23;;;;;;;1.63;0.80;;;;;;;;;;5029039;28;20211;-66
2022/03/14 09:29:51;;;;;;;0.83;0.83;;;;;;;;;;5042726;28;20286;-64
2022/03/14 09:32:20;;;;;;;0.67;0.67;;;;;;;;;;5024730;28;20222;-64
2022/03/14 09:34:47;;;;;;;0.80;0.80;;;;;;;;;;5041327;28;20245;-65
2022/03/14 09:37:15;;;;;;;1.00;1.00;;;;;;;;;;5024958;28;20239;-67
2022/03/14 09:39:43;;;;;;;0.80;0.80;;;;;;;;;;5028069;28;20213;-64
2022/03/14 09:42:11;;;;;;;0.80;0.80;;;;;;;;;;5020620;28;20211;-66
2022/03/14 09:44:42;;;;;;;1.70;0.93;;;;;;;;;;5038115;28;20259;-65
2022/03/14 09:47:11;;;;;;;3.30;1.37;;;;;;;;;;5027158;28;20208;-62
2022/03/14 09:49:40;;;;;;;6.50;3.73;;;;;;;;;;5023658;28;20207;-65
2022/03/14 09:52:11;;;;;;;1.03;0.90;;;;;;;;;;5034163;28;20202;-65
2022/03/14 09:54:38;;;;;;;0.70;0.70;;;;;;;;;;5024750;28;20811;-65
2022/03/14 09:57:06;;;;;;;0.80;0.80;;;;;;;;;;5041908;28;20183;-65
2022/03/14 09:59:35;;;;;;;1.43;0.90;;;;;;;;;;5049828;28;20270;-65
2022/03/14 10:02:02;;;;;;;1.03;0.90;;;;;;;;;;5023097;28;20208;-66
2022/03/14 10:04:30;;;;;;;1.13;1.00;;;;;;;;;;5023681;28;20199;-65
2022/03/14 10:06:57;;;;;;;0.80;0.80;;;;;;;;;;5021725;28;20253;-64
2022/03/14 10:09:25;;;;;;;0.83;0.80;;;;;;;;;;5022175;28;20246;-64
2022/03/14 10:11:53;;;;;;;0.90;0.90;;;;;;;;;;5019757;28;20213;-66
2022/03/14 10:14:20;;;;;;;1.07;0.97;;;;;;;;;;5027654;28;20207;-65
2022/03/14 10:16:48;;;;;;;1.37;0.87;;;;;;;;;;5026613;28;20215;-65
2022/03/14 10:19:20;;;;;;;4.17;1.13;;;;;;;;;;5041480;28;20583;-65
2022/03/14 10:21:50;;;;;;;0.83;0.83;;;;;;;;;;5022390;28;20211;-65
2022/03/14 10:24:21;;;;;;;1.53;0.93;;;;;;;;;;5025744;28;20229;-64
2022/03/14 10:26:49;;;;;;;0.90;0.90;;;;;;;;;;5028457;28;20203;-65
2022/03/14 10:29:18;;;;;;;1.43;1.00;;;;;;;;;;5031145;28;20238;-65
2022/03/14 10:31:46;;;;;;;1.07;0.93;;;;;;;;;;5020658;28;20215;-65
2022/03/14 10:34:16;;;;;;;0.90;0.80;;;;;;;;;;5028603;28;20211;-65
2022/03/14 10:36:51;;;;;;;0.87;0.87;;;;;;;;;;5021699;28;20217;-65
2022/03/14 10:39:28;;;;;;;1.03;1.03;;;;;;;;;;5042294;28;20265;-65
2022/03/14 10:42:02;;;;;;;1.97;0.83;;;;;;;;;;5039250;28;20202;-65
2022/03/14 10:44:48;;;;;;;1.03;1.03;;;;;;;;;;5029002;28;20237;-64
2022/03/14 10:47:15;;;;;;;1.00;1.00;;;;;;;;;;5042481;28;20202;-66
2022/03/14 10:49:43;;;;;;;1.83;1.07;;;;;;;;;;5033456;28;20198;-65
2022/03/14 10:52:18;;;;;;;1.27;1.27;;;;;;;;;;5019174;28;20206;-66
2022/03/14 10:54:46;;;;;;;1.87;1.10;;;;;;;;;;5025826;28;20214;-65
2022/03/14 10:57:14;;;;;;;2.60;0.90;;;;;;;;;;5025516;28;20584;-65
2022/03/14 10:59:45;;;;;;;2.07;1.00;;;;;;;;;;5022075;28;20617;-65
2022/03/14 11:02:14;;;;;;;1.30;0.90;;;;;;;;;;5021768;28;20215;-66
2022/03/14 11:04:41;;;;;;;1.60;0.90;;;;;;;;;;5040089;28;20244;-65
2022/03/14 11:07:09;;;;;;;1.20;1.10;;;;;;;;;;5021318;28;20206;-63
2022/03/14 11:09:40;;;;;;;1.10;1.00;;;;;;;;;;5034449;28;20229;-65
2022/03/14 11:12:09;;;;;;;1.30;1.00;;;;;;;;;;5034881;28;20214;-65
2022/03/14 11:14:36;;;;;;;1.03;0.80;;;;;;;;;;5040351;28;20206;-65
2022/03/14 11:17:15;;;;;;;1.67;0.90;;;;;;;;;;5029353;28;20217;-65
2022/03/14 11:19:42;;;;;;;2.70;0.90;;;;;;;;;;5002839;28;20198;-65
2022/03/14 11:22:12;;;;;;;1.80;0.90;;;;;;;;;;5020926;28;20233;-66
2022/03/14 11:24:40;;;;;;;1.93;1.10;;;;;;;;;;5025222;28;20235;-64
2022/03/14 11:27:10;;;;;;;2.30;1.00;;;;;;;;;;5021195;28;20203;-66
2022/03/14 11:29:39;;;;;;;1.77;1.37;;;;;;;;;;5036776;28;20231;-65
2022/03/14 11:32:07;;;;;;;2.00;1.40;;;;;;;;;;5020046;28;20199;-64
2022/03/14 11:34:55;;;;;;;1.30;1.10;;;;;;;;;;5034494;28;20232;-65
2022/03/14 11:37:24;;;;;;;2.40;1.10;;;;;;;;;;5019734;28;20216;-65
2022/03/14 11:39:52;;;;;;;1.10;1.00;;;;;;;;;;5033043;28;20221;-66
2022/03/14 11:42:21;;;;;;;1.63;1.10;;;;;;;;;;5011821;28;20206;-65
2022/03/14 11:44:50;;;;;;;2.50;1.27;;;;;;;;;;5024509;28;20303;-64
2022/03/14 11:47:19;;;;;;;1.03;1.03;;;;;;;;;;5026508;28;20243;-65
2022/03/14 11:49:47;;;;;;;1.30;1.20;;;;;;;;;;5036385;28;20207;-65
2022/03/14 11:52:19;;;;;;;1.87;1.17;;;;;;;;;;5015040;28;20200;-63
2022/03/14 11:54:48;;;;;;;3.57;1.33;;;;;;;;;;5011756;28;20251;-64
2022/03/14 11:57:35;;;;;;;2.77;1.10;;;;;;;;;;5010283;28;21012;-65
2022/03/14 12:00:21;;;;;;;0.97;0.90;;;;;;;;;;5021387;28;20309;-66
2022/03/14 12:02:49;;;;;;;1.00;0.90;;;;;;;;;;5037353;28;20310;-65
2022/03/14 12:05:32;;;;;;;2.77;1.00;;;;;;;;;;5028407;28;20250;-66
2022/03/14 12:07:59;;;;;;;1.30;1.20;;;;;;;;;;5016776;28;20219;-65
2022/03/14 12:10:28;;;;;;;1.00;0.90;;;;;;;;;;5023444;28;20660;-65
2022/03/14 12:12:58;;;;;;;1.67;0.87;;;;;;;;;;5038837;28;21565;-64
2022/03/14 12:15:55;;;;;;;1.60;1.00;;;;;;;;;;5025300;28;20727;-66
2022/03/14 12:18:26;;;;;;;1.30;1.00;;;;;;;;;;5008690;28;20708;-65
2022/03/14 12:21:03;;;;;;;1.73;0.87;;;;;;;;;;5025573;28;20219;-67
2022/03/14 12:23:34;;;;;;;4.07;1.10;;;;;;;;;;5022681;28;20285;-66
2022/03/14 12:26:02;;;;;;;1.73;1.00;;;;;;;;;;5023353;28;20217;-64
2022/03/14 12:28:31;;;;;;;1.83;1.10;;;;;;;;;;5031096;28;20218;-66
2022/03/14 12:31:04;;;;;;;1.73;0.90;;;;;;;;;;5024055;28;20216;-66
2022/03/14 12:33:51;;;;;;;2.63;1.00;;;;;;;;;;5037414;28;20303;-65
2022/03/14 12:36:40;;;;;;;1.63;0.90;;;;;;;;;;5037269;28;20209;-65
2022/03/14 12:39:12;;;;;;;3.10;0.97;;;;;;;;;;5043440;28;20225;-64
2022/03/14 12:41:41;;;;;;;0.73;0.73;;;;;;;;;;5039334;28;20283;-65
2022/03/14 12:44:29;;;;;;;0.80;0.80;;;;;;;;;;5039348;28;20317;-66
2022/03/14 12:46:59;;;;;;;1.53;1.00;;;;;;;;;;5021606;28;20208;-65
2022/03/14 12:49:49;;;;;;;2.27;1.10;;;;;;;;;;5023455;28;20241;-65
2022/03/14 12:52:18;;;;;;;0.90;0.90;;;;;;;;;;5034352;28;20203;-65
2022/03/14 12:54:46;;;;;;;0.87;0.60;;;;;;;;;;5034191;28;20223;-65
2022/03/14 12:57:17;;;;;;;2.47;1.00;;;;;;;;;;5033641;28;20203;-65
2022/03/14 12:59:45;;;;;;;1.87;0.73;;;;;;;;;;5033371;28;20217;-65
2022/03/14 13:02:25;;;;;;;1.43;0.97;;;;;;;;;;5022481;28;20742;-66
2022/03/14 13:04:57;;;;;;;2.77;1.00;;;;;;;;;;5025049;28;20237;-65
2022/03/14 13:07:29;;;;;;;0.80;0.73;;;;;;;;;;5020407;28;20516;-65
2022/03/14 13:09:58;;;;;;;3.43;1.10;;;;;;;;;;5035619;28;20235;-66
2022/03/14 13:12:29;;;;;;;1.50;0.90;;;;;;;;;;5039187;28;20206;-65
2022/03/14 13:15:04;;;;;;;1.40;0.90;;;;;;;;;;5008518;28;20210;-65
2022/03/14 13:17:49;;;;;;;1.77;0.90;;;;;;;;;;5023737;28;20329;-65
2022/03/14 13:20:21;;;;;;;1.63;0.93;;;;;;;;;;5041269;28;20296;-64
2022/03/14 13:22:48;;;;;;;1.83;0.93;;;;;;;;;;5037756;28;20202;-66
2022/03/14 13:25:32;;;;;;;1.97;0.80;;;;;;;;;;5028382;28;20215;-66
2022/03/14 13:27:59;;;;;;;3.23;1.00;;;;;;;;;;5023027;28;20233;-66
2022/03/14 13:30:42;;;;;;;2.40;0.90;;;;;;;;;;5023936;28;20211;-67
2022/03/14 13:33:24;;;;;;;1.00;0.90;;;;;;;;;;5065382;28;20199;-65
2022/03/14 13:35:52;;;;;;;1.23;0.70;;;;;;;;;;5047421;28;20210;-67
2022/03/14 13:38:39;;;;;;;0.97;0.83;;;;;;;;;;5025000;28;20776;-65
2022/03/14 13:41:09;;;;;;;0.97;0.80;;;;;;;;;;5040615;28;20898;-68
2022/03/14 13:43:39;;;;;;;2.00;0.70;;;;;;;;;;5037672;28;20321;-66
2022/03/14 13:46:24;;;;;;;2.57;1.00;;;;;;;;;;5024720;28;20214;-66
2022/03/14 13:48:55;;;;;;;1.10;0.70;;;;;;;;;;5039906;28;20227;-67
2022/03/14 13:51:27;;;;;;;2.07;0.87;;;;;;;;;;5036204;28;20215;-66
2022/03/14 13:54:01;;;;;;;1.47;0.90;;;;;;;;;;5037857;28;20202;-66
2022/03/14 13:56:33;;;;;;;2.20;0.70;;;;;;;;;;5018906;28;20597;-65
2022/03/14 13:59:10;;;;;;;0.80;0.80;;;;;;;;;;5022609;28;20269;-66
2022/03/14 14:01:39;;;;;;;2.00;1.00;;;;;;;;;;5035322;28;20215;-65
2022/03/14 14:04:14;;;;;;;2.40;1.00;;;;;;;;;;5016731;28;20248;-66
2022/03/14 14:06:44;;;;;;;0.93;0.80;;;;;;;;;;5022451;28;20204;-66
2022/03/14 14:09:25;;;;;;;1.33;0.77;;;;;;;;;;5039125;28;20230;-65
2022/03/14 14:11:56;;;;;;;6.07;0.90;;;;;;;;;;5023139;28;20206;-64
2022/03/14 14:14:28;;;;;;;0.87;0.60;;;;;;;;;;5021530;28;20223;-65
2022/03/14 14:17:16;;;;;;;2.37;0.90;;;;;;;;;;5035190;28;20296;-65
2022/03/14 14:20:02;;;;;;;2.57;0.67;;;;;;;;;;5024220;28;20714;-65
2022/03/14 14:22:30;;;;;;;1.63;0.70;;;;;;;;;;5025836;28;20206;-66
2022/03/14 14:24:58;;;;;;;1.67;0.80;;;;;;;;;;5020391;28;20728;-65
2022/03/14 14:27:29;;;;;;;0.70;0.60;;;;;;;;;;5021947;28;20226;-65
2022/03/14 14:29:59;;;;;;;0.90;0.60;;;;;;;;;;5020713;28;20199;-66
2022/03/14 14:32:27;;;;;;;1.57;0.83;;;;;;;;;;5017507;28;20215;-65
2022/03/14 14:34:57;;;;;;;1.47;0.80;;;;;;;;;;5031408;28;20203;-65
2022/03/14 14:37:24;;;;;;;2.00;0.70;;;;;;;;;;5022049;28;20199;-65
2022/03/14 14:39:52;;;;;;;0.60;0.60;;;;;;;;;;5037468;28;20214;-66
2022/03/14 14:42:20;;;;;;;1.10;0.63;;;;;;;;;;5041424;28;20258;-65
2022/03/14 14:44:47;;;;;;;1.17;0.70;;;;;;;;;;5028346;28;20226;-65
2022/03/14 14:47:16;;;;;;;1.23;0.67;;;;;;;;;;5022711;28;20202;-66
2022/03/14 14:49:44;;;;;;;0.60;0.60;;;;;;;;;;5038051;28;20203;-65
2022/03/14 14:52:12;;;;;;;1.07;0.70;;;;;;;;;;5025565;28;20246;-64